X  Schließen METAR Luftfahrt Wetterdaten     EHRD Rotterdam The Hague Airport
Temperatur
21°C Temperatur
9°C Taupunkt
46% Feuchtigkeit



Wind
19 KM/S
12 MPS
5 M/S
10 KTS



180°
Süd
Aktuelle Wetterlage

Teilweise bewölkt Teilweise bewölkt
Luftdruck 1014.92 (hPa) - 29.97 (inHg)
Sichtweite 6.2 (Meile) - 10 (Km)
Flughafen
Flughafen Code EHRD

Position : Rotterdam The Hague Airport
Entfernung: 16 (Km)

Metar:
EHRD 261425Z AUTO 18010G22KT 140V240 9999 FEW048 21/09 Q1015 NOSIG

Zeit: 26-06-2022 16:25 CEST